Airfield :
LOGIN :

Register | Disclaimer

   EN    FR    IT 

 










Legend :    VFR   Marginal VFR   IFR   Intensive IFR   Very Intensive IFR
Visi :
Ceiling :
>= 8 km
>= 3000ft
5 to 8 km
1000 to 3000 ft
1500m to 5 km
500 to 1000 ft
800 to 1500m
200 to 500 ft
< 800m
< 200 ft
Symbols :   Thunderstorms  Fog  Heavy snow  Heavy precipitations  Wind > 20 kt
SIGMETs :     Misc.  Thunderstorms  Icing  Turbulence  Mountain Waves  Volcanic Ashes






- Airport Elevation : 53 ft
- IATA code : AGP


LEMG - Malaga

CURRENT METAR :
  • 101000Z 12006KT 090V160 CAVOK 27/17 Q1014 NOSIG

EXPIRED METARs :
  • 100930Z 13007KT CAVOK 26/17 Q1014 NOSIG
  • 100900Z 13006KT 100V160 CAVOK 26/18 Q1014 NOSIG
  • 100830Z 09002KT CAVOK 27/17 Q1014 NOSIG
  • 100800Z VRB01KT CAVOK 25/18 Q1015 NOSIG
  • 100730Z VRB02KT CAVOK 23/17 Q1015 NOSIG

TAF TAF LEMG
Valid from the 10 at 06:00 until the 11 at 06:00 UTC


100500Z 1006/1106 VRB02KT 9999 FEW025 TX29/1013Z TN20/1105Z
BECMG 1007/1010 14010KT
BECMG 1018/1021 VRB02KT
PROB40
TEMPO 1100/1105 28010KT



MET'MAP, your aeronautical weather chart ! - Copyright ORBIFLY December 2007 - Disclaimer

ORBIFLY MET'MAP TEAM :

Programming & Development : Alexandra Zaïnal
Concept & original design : Baudouin d'Aumeries
Assistance for programming : Marc-Olivier Méhu
Technical & hardware support : Manuel Goepfert

Contact : metmap@orbifly.com




SOURCES & CREDITS :

   NOAA